Time;durP1;ratioP1;P1;durP2;ratioP2;P2;SDS_P1;SDS_P2;PMS_P1;PMS_P2;Temp;Humidity;BMP_temperature;BMP_pressure;BME280_temperature;BME280_humidity;BME280_pressure;Samples;Min_cycle;Max_cycle;Signal;HPM_P1;HPM_P2
2022/11/25 06:34:32;;;;;;;10.70;5.40;;;;;;;6.70;73.14;98932.13;24486;1340;3053218;-68
2022/11/25 06:37:03;;;;;;;13.10;7.00;;;;;;;6.54;74.00;98941.46;24449;1332;3051814;-67
2022/11/25 06:39:32;;;;;;;12.60;6.60;;;;;;;6.33;74.67;98944.47;24442;1330;3026650;-65
2022/11/25 06:42:01;;;;;;;14.10;6.70;;;;;;;6.37;74.83;98938.55;24497;1333;3026212;-68
2022/11/25 06:44:30;;;;;;;11.80;6.30;;;;;;;6.31;74.50;98938.12;24454;1326;3050667;-65
2022/11/25 06:47:01;;;;;;;13.20;6.80;;;;;;;6.25;74.73;98941.95;24473;1333;3026794;-69
2022/11/25 06:49:30;;;;;;;12.80;6.90;;;;;;;6.07;75.42;98946.52;24537;1332;3026949;-71
2022/11/25 06:52:00;;;;;;;15.20;6.70;;;;;;;6.02;75.60;98953.02;24501;1332;3028100;-67
2022/11/25 06:54:29;;;;;;;12.50;6.60;;;;;;;5.94;75.91;98954.40;24453;1321;3028487;-69
2022/11/25 06:56:58;;;;;;;12.20;6.30;;;;;;;5.94;75.99;98956.48;24496;1341;3048899;-68
2022/11/25 06:59:52;;;;;;;7.60;3.80;;;;;;;6.09;75.80;98952.13;24499;1326;3068998;-69
2022/11/25 07:02:20;;;;;;;11.00;4.40;;;;;;;6.77;74.09;98948.27;24523;1325;3026536;-69
2022/11/25 07:04:50;;;;;;;9.90;5.10;;;;;;;7.51;71.69;98946.55;24531;1340;3049015;-67
2022/11/25 07:07:19;;;;;;;10.60;5.10;;;;;;;7.75;70.90;98942.55;24473;1326;3028621;-66
2022/11/25 07:09:48;;;;;;;13.60;5.90;;;;;;;7.72;70.48;98941.66;24559;1339;3052412;-69
2022/11/25 07:12:17;;;;;;;11.20;6.00;;;;;;;7.59;70.37;98945.19;24516;1326;3025779;-69
2022/11/25 07:14:50;;;;;;;16.10;6.30;;;;;;;7.46;70.64;98953.45;24515;1326;3051624;-65
2022/11/25 07:17:19;;;;;;;14.90;6.00;;;;;;;7.14;71.03;98956.23;24477;1333;3029150;-67
2022/11/25 07:19:48;;;;;;;13.00;7.20;;;;;;;7.08;71.85;98962.30;24505;1325;3027892;-69
2022/11/25 07:22:17;;;;;;;17.10;7.70;;;;;;;6.88;72.37;98952.35;24492;1332;3051938;-68
2022/11/25 07:24:46;;;;;;;15.80;7.00;;;;;;;6.83;72.81;98949.70;24504;1333;3026062;-67
2022/11/25 07:27:14;;;;;;;14.10;7.50;;;;;;;6.77;73.09;98952.65;24472;1336;3052537;-71
2022/11/25 07:29:44;;;;;;;18.00;7.40;;;;;;;6.60;73.56;98956.48;24491;1333;3027789;-74
2022/11/25 07:32:13;;;;;;;14.60;7.10;;;;;;;6.65;73.75;98954.30;24498;1325;3027836;-74
2022/11/25 07:34:42;;;;;;;14.10;6.70;;;;;;;6.72;73.24;98956.22;24508;1334;3052623;-68
2022/11/25 07:37:11;;;;;;;14.70;6.10;;;;;;;6.69;73.11;98956.71;24482;1325;3028482;-72
2022/11/25 07:39:40;;;;;;;14.20;6.70;;;;;;;6.77;73.05;98958.56;24505;1326;3039162;-72
2022/11/25 07:42:09;;;;;;;12.60;6.10;;;;;;;6.75;72.88;98958.48;24573;1323;3028073;-67
2022/11/25 07:44:39;;;;;;;14.50;7.10;;;;;;;6.78;72.56;98964.60;24528;1339;3055505;-67
2022/11/25 07:47:33;;;;;;;12.80;7.00;;;;;;;6.68;73.02;98956.92;24506;1332;3052298;-72
2022/11/25 07:50:02;;;;;;;11.90;6.00;;;;;;;6.67;73.29;98956.11;24560;1324;3026669;-70
2022/11/25 07:52:32;;;;;;;14.60;7.20;;;;;;;6.64;73.16;98959.92;24474;1326;3028678;-71
2022/11/25 07:55:04;;;;;;;13.60;6.20;;;;;;;6.68;73.17;98968.61;24562;1332;3026451;-70
2022/11/25 07:57:36;;;;;;;14.30;5.80;;;;;;;6.68;73.09;98967.94;24546;1332;3051976;-68
2022/11/25 08:00:06;;;;;;;13.90;6.20;;;;;;;6.64;72.80;98959.04;24499;1326;3026161;-72
2022/11/25 08:02:40;;;;;;;17.10;6.80;;;;;;;6.60;72.76;98962.23;24566;1333;3052466;-76
2022/11/25 08:05:10;;;;;;;15.70;6.80;;;;;;;6.52;73.37;98964.39;24670;1340;3027161;-70
2022/11/25 08:07:40;;;;;;;19.00;7.30;;;;;;;6.58;73.20;98964.94;24568;1319;3050787;-65
2022/11/25 08:10:34;;;;;;;15.00;6.50;;;;;;;6.50;73.57;98965.89;24547;1333;3052669;-64
2022/11/25 08:13:04;;;;;;;13.50;6.20;;;;;;;6.57;73.16;98964.83;24519;1333;3028775;-71
2022/11/25 08:15:33;;;;;;;13.20;6.60;;;;;;;6.57;73.10;98970.02;24569;1332;3025837;-70
2022/11/25 08:18:02;;;;;;;12.60;6.20;;;;;;;6.64;72.74;98965.13;24470;1340;3051279;-71
2022/11/25 08:20:31;;;;;;;17.90;7.00;;;;;;;6.55;73.18;98969.27;24523;1333;3026073;-69
2022/11/25 08:23:00;;;;;;;15.60;7.00;;;;;;;6.58;73.13;98970.50;24577;1333;3026372;-68
2022/11/25 08:25:30;;;;;;;19.50;7.60;;;;;;;6.57;73.41;98968.13;24548;1335;3052466;-73
2022/11/25 08:27:59;;;;;;;10.10;5.50;;;;;;;6.58;73.69;98968.77;24544;1336;3028713;-68
2022/11/25 08:30:29;;;;;;;11.30;5.10;;;;;;;7.16;71.94;98972.66;24488;1325;3026311;-73
2022/11/25 08:32:58;;;;;;;13.70;5.60;;;;;;;7.77;69.76;98974.17;24507;1333;3052110;-69
2022/11/25 08:35:28;;;;;;;12.40;6.20;;;;;;;7.88;69.10;98976.38;24605;1333;3026574;-71
2022/11/25 08:37:57;;;;;;;15.00;7.10;;;;;;;7.77;69.26;98977.63;24552;1326;3026376;-66
2022/11/25 08:40:26;;;;;;;16.80;6.50;;;;;;;7.65;69.70;98974.69;24506;1331;3053616;-70
2022/11/25 08:42:55;;;;;;;14.80;7.40;;;;;;;7.47;69.97;98980.02;24524;1331;3026022;-71
2022/11/25 08:45:24;;;;;;;16.80;7.70;;;;;;;7.21;71.15;98980.94;24581;1333;3051683;-68
2022/11/25 08:47:53;;;;;;;17.70;7.50;;;;;;;6.98;71.90;98979.59;24617;1326;3026689;-68
2022/11/25 08:50:24;;;;;;;14.70;7.50;;;;;;;7.00;72.21;98987.47;24533;1333;3053174;-68
2022/11/25 08:52:53;;;;;;;18.50;7.90;;;;;;;6.94;72.42;98985.02;24486;1334;3028168;-71
2022/11/25 08:55:24;;;;;;;16.40;7.90;;;;;;;6.80;72.81;98983.45;24554;1332;3028960;-68
2022/11/25 08:57:54;;;;;;;14.80;7.80;;;;;;;6.80;72.92;98982.23;24492;1334;3026245;-76
2022/11/25 09:00:23;;;;;;;19.70;8.10;;;;;;;6.71;73.37;98983.77;24496;1332;3024929;-71
2022/11/25 09:02:52;;;;;;;15.70;7.90;;;;;;;6.54;74.21;98983.41;24458;1337;3051873;-70
2022/11/25 09:05:22;;;;;;;16.30;8.20;;;;;;;6.65;74.14;98986.52;24499;1334;3025813;-67
2022/11/25 09:07:51;;;;;;;17.50;8.50;;;;;;;6.66;74.07;98987.66;24511;1326;3026533;-67
2022/11/25 09:10:20;;;;;;;22.00;9.60;;;;;;;6.59;74.44;98989.63;24498;1340;3052238;-68
2022/11/25 09:12:54;;;;;;;22.40;9.10;;;;;;;6.59;74.56;98990.84;24524;1335;3048606;-72
2022/11/25 09:15:23;;;;;;;18.90;8.50;;;;;;;6.56;74.39;98992.37;24429;1325;3028140;-67
2022/11/25 09:17:59;;;;;;;15.90;8.10;;;;;;;6.53;74.41;98991.27;24551;1341;3052199;-67
2022/11/25 09:20:28;;;;;;;18.20;9.10;;;;;;;6.43;75.06;98991.66;24510;1319;3048429;-69
2022/11/25 09:22:58;;;;;;;20.00;9.20;;;;;;;6.46;75.08;98989.39;24532;1333;3026338;-70
2022/11/25 09:25:28;;;;;;;13.80;7.10;;;;;;;6.48;75.51;98994.84;24505;1340;3051733;-71
2022/11/25 09:27:57;;;;;;;13.80;6.50;;;;;;;7.03;74.16;98984.67;24530;1333;3028241;-68
2022/11/25 09:30:26;;;;;;;19.70;9.00;;;;;;;7.56;72.29;98983.52;24551;1333;3026470;-67
2022/11/25 09:32:55;;;;;;;19.60;9.50;;;;;;;7.72;71.44;98983.50;24521;1334;3051785;-72
2022/11/25 09:35:28;;;;;;;25.30;11.20;;;;;;;7.65;71.39;98982.19;24539;1334;3029267;-71
2022/11/25 09:37:57;;;;;;;22.20;9.90;;;;;;;7.31;72.35;98982.29;24552;1326;3026510;-74
2022/11/25 09:40:50;;;;;;;22.60;10.60;;;;;;;7.08;73.21;98990.51;24631;1332;3051262;-72
2022/11/25 09:46:54;;;;;;;22.30;10.20;;;;;;;6.88;74.49;98993.33;24506;1333;3069168;-70
2022/11/25 09:49:23;;;;;;;;;;;;;;;6.75;75.13;98989.96;24622;1334;3049967;-70
2022/11/25 09:52:11;;;;;;;21.00;9.60;;;;;;;6.64;75.37;98986.58;24621;1323;3028644;-71
2022/11/25 09:54:43;;;;;;;19.90;9.20;;;;;;;6.55;76.18;98990.51;24555;1328;3068775;-69
2022/11/25 09:57:42;;;;;;;22.70;10.20;;;;;;;6.49;76.52;98989.40;24491;1333;3029042;-69
2022/11/25 10:00:13;;;;;;;22.00;10.70;;;;;;;6.48;76.71;98989.98;24524;1333;3056984;-72
2022/11/25 10:02:51;;;;;;;20.80;10.40;;;;;;;6.44;77.14;98990.73;24552;1327;3026194;-69
2022/11/25 10:05:33;;;;;;;17.70;8.30;;;;;;;6.51;76.89;98990.17;24638;1329;3052990;-72
2022/11/25 10:08:09;;;;;;;17.60;7.70;;;;;;;7.19;75.41;98986.05;23859;1322;4545968;-69
2022/11/25 10:10:44;;;;;;;22.80;10.80;;;;;;;7.77;73.03;98981.65;24489;1332;3052610;-65
2022/11/25 10:13:42;;;;;;;23.80;10.80;;;;;;;7.89;72.46;98980.98;24521;1333;3053818;-67
2022/11/25 10:16:50;;;;;;;21.10;9.70;;;;;;;7.67;73.06;98981.16;24682;1333;3050787;-67
2022/11/25 10:19:42;;;;;;;20.50;9.90;;;;;;;7.42;74.02;98986.59;24667;1332;3053198;-71
2022/11/25 10:22:26;;;;;;;20.70;10.80;;;;;;;7.28;74.81;98984.91;24560;1339;3049804;-71
2022/11/25 10:25:11;;;;;;;24.40;11.30;;;;;;;7.17;75.27;98983.93;24504;1326;3069703;-66
2022/11/25 10:28:01;;;;;;;21.10;10.90;;;;;;;7.14;75.61;98985.50;24507;1323;3049887;-72
2022/11/25 10:30:40;;;;;;;25.30;11.70;;;;;;;7.07;75.69;98987.61;24531;1334;3057048;-68
2022/11/25 10:33:15;;;;;;;24.00;11.50;;;;;;;7.00;76.36;98993.92;24514;1329;3052505;-70
2022/11/25 10:36:06;;;;;;;30.60;12.70;;;;;;;6.93;76.43;98995.82;24480;1339;3053435;-68
2022/11/25 10:38:40;;;;;;;27.40;11.70;;;;;;;6.90;76.90;98996.86;24569;1333;3051944;-65
2022/11/25 10:41:15;;;;;;;16.90;7.70;;;;;;;6.94;77.09;98994.55;24510;1333;3052600;-67
2022/11/25 10:43:47;;;;;;;19.80;8.70;;;;;;;7.54;75.71;98990.77;24482;1336;3048475;-68
2022/11/25 10:46:39;;;;;;;19.80;9.70;;;;;;;8.14;73.27;98990.03;24427;1320;3029238;-68
2022/11/25 10:49:23;;;;;;;25.40;11.60;;;;;;;8.24;72.45;98986.13;24476;1333;3050558;-66
2022/11/25 10:51:53;;;;;;;24.60;11.30;;;;;;;8.17;72.45;98991.20;24500;1333;3056645;-67
2022/11/25 10:54:27;;;;;;;24.00;11.30;;;;;;;7.98;73.29;98988.34;24610;1322;3026183;-68
2022/11/25 10:57:03;;;;;;;21.00;10.80;;;;;;;7.76;73.78;98987.30;24483;1335;3024811;-69
2022/11/25 10:59:36;;;;;;;24.40;10.40;;;;;;;7.69;74.34;98986.48;24575;1325;3052236;-67
2022/11/25 11:02:15;;;;;;;24.70;10.90;;;;;;;7.60;74.57;98988.35;24519;1339;3026709;-67
2022/11/25 11:05:02;;;;;;;21.70;11.10;;;;;;;7.50;74.98;98990.48;24515;1333;3049994;-69
2022/11/25 11:07:33;;;;;;;24.60;11.30;;;;;;;7.48;75.05;98987.63;24555;1326;3067140;-68
2022/11/25 11:10:27;;;;;;;22.80;11.30;;;;;;;7.36;75.56;98987.09;24531;1336;3050180;-67
2022/11/25 11:13:00;;;;;;;22.40;11.10;;;;;;;7.30;76.05;98990.91;24569;1326;3026101;-73
2022/11/25 11:15:30;;;;;;;18.90;7.70;;;;;;;7.35;76.22;98988.73;24483;1333;3067931;-66
2022/11/25 11:18:38;;;;;;;14.80;7.50;;;;;;;7.83;74.85;98982.73;24560;1333;3026226;-68
2022/11/25 11:21:28;;;;;;;17.00;7.80;;;;;;;8.53;72.57;98983.04;24536;1325;3055816;-71
2022/11/25 11:24:34;;;;;;;17.40;8.60;;;;;;;8.60;71.69;98978.25;24516;1325;3057015;-69
2022/11/25 11:27:08;;;;;;;22.50;9.60;;;;;;;8.50;71.90;98983.92;24543;1332;3052872;-68
2022/11/25 11:29:37;;;;;;;19.50;9.00;;;;;;;8.17;72.29;98989.66;24503;1330;3026194;-70
2022/11/25 11:32:07;;;;;;;21.60;10.70;;;;;;;8.07;73.06;98990.95;24558;1333;3028341;-68
2022/11/25 11:34:43;;;;;;;20.20;9.40;;;;;;;8.02;73.41;98992.80;24514;1326;3028796;-68
2022/11/25 11:37:21;;;;;;;20.90;9.30;;;;;;;7.97;73.48;98993.08;24529;1324;3052896;-67
2022/11/25 11:40:02;;;;;;;19.70;9.50;;;;;;;7.98;73.56;98990.95;24549;1333;3051225;-66
2022/11/25 11:43:05;;;;;;;18.60;9.00;;;;;;;7.91;73.82;98992.71;24471;1336;3049860;-68
2022/11/25 11:46:07;;;;;;;18.20;8.50;;;;;;;7.95;73.55;98993.73;24500;1329;3069773;-67
2022/11/25 11:49:18;;;;;;;17.40;8.90;;;;;;;7.95;73.18;98992.70;24532;1333;3049925;-69
2022/11/25 11:51:59;;;;;;;19.00;9.10;;;;;;;7.89;73.36;98994.92;24505;1333;3056390;-67
2022/11/25 11:55:21;;;;;;;15.40;7.80;;;;;;;7.83;73.63;98998.77;24514;1338;3051801;-69
2022/11/25 11:58:10;;;;;;;9.40;5.50;;;;;;;7.80;74.22;99000.00;24491;1333;3053676;-68
2022/11/25 12:01:10;;;;;;;11.50;5.70;;;;;;;8.56;72.04;98992.81;24508;1339;3052049;-66
2022/11/25 12:03:43;;;;;;;10.80;5.60;;;;;;;9.07;70.45;98996.20;24513;1332;3053127;-70
2022/11/25 12:06:12;;;;;;;16.80;8.50;;;;;;;9.12;70.17;98992.76;24471;1343;3026697;-64
2022/11/25 12:08:46;;;;;;;15.70;7.80;;;;;;;8.81;70.03;98994.66;24513;1333;3025189;-70
2022/11/25 12:11:19;;;;;;;16.20;7.80;;;;;;;8.66;70.87;98997.84;24570;1332;3053372;-69
2022/11/25 12:13:55;;;;;;;18.30;7.90;;;;;;;8.58;71.19;98998.33;24541;1333;3049605;-69
2022/11/25 12:16:44;;;;;;;17.70;8.00;;;;;;;8.42;71.29;98993.98;24654;1333;3068496;-66
2022/11/25 12:19:23;;;;;;;19.10;8.20;;;;;;;8.24;71.88;98992.59;24625;1333;3049895;-72
2022/11/25 12:22:07;;;;;;;16.00;7.80;;;;;;;8.10;72.09;98996.20;24500;1320;3056090;-66
2022/11/25 12:25:05;;;;;;;15.80;8.70;;;;;;;7.96;72.65;98997.13;24572;1329;3052573;-67
2022/11/25 12:27:43;;;;;;;17.70;8.10;;;;;;;7.92;72.97;98995.81;24557;1321;3026342;-66
2022/11/25 12:30:22;;;;;;;19.60;8.40;;;;;;;7.90;73.05;98990.89;24587;1335;3051699;-66
2022/11/25 12:33:20;;;;;;;22.20;10.00;;;;;;;7.77;74.03;98988.48;24628;1334;3053639;-68
2022/11/25 12:36:09;;;;;;;19.40;9.60;;;;;;;7.68;74.34;98985.33;24541;1333;3049620;-64
2022/11/25 12:39:04;;;;;;;20.80;10.10;;;;;;;7.65;74.82;98985.34;24599;1332;3068199;-67
2022/11/25 12:42:13;;;;;;;11.60;6.50;;;;;;;7.65;75.25;98984.94;24565;1333;3050389;-69
2022/11/25 12:45:02;;;;;;;11.80;6.20;;;;;;;8.63;73.52;98987.15;24451;1332;3057146;-68
2022/11/25 12:47:31;;;;;;;14.70;7.00;;;;;;;9.09;71.12;98978.61;24551;1334;3051763;-73
2022/11/25 12:50:00;;;;;;;16.00;7.60;;;;;;;9.09;70.97;98978.10;24489;1343;3027807;-67
2022/11/25 12:52:48;;;;;;;20.30;9.00;;;;;;;8.71;71.45;98981.08;24607;1327;3056243;-66
2022/11/25 12:55:42;;;;;;;16.20;8.70;;;;;;;8.36;72.81;98987.15;24455;1333;3053149;-70
2022/11/25 12:58:27;;;;;;;14.50;8.00;;;;;;;8.19;73.83;98989.18;24522;1335;3027496;-69
2022/11/25 13:01:35;;;;;;;17.30;9.10;;;;;;;8.05;74.13;98992.27;24575;1338;3051536;-68
2022/11/25 13:04:44;;;;;;;19.10;8.60;;;;;;;7.80;75.58;98990.94;24548;1324;3053735;-69
2022/11/25 13:07:21;;;;;;;21.00;9.50;;;;;;;7.72;76.15;98991.55;24595;1331;3049804;-70
2022/11/25 13:10:14;;;;;;;19.40;10.40;;;;;;;7.47;77.40;98991.89;24719;1334;3068564;-68
2022/11/25 13:12:59;;;;;;;;;;;;;;;7.34;78.55;98994.87;24656;1327;3049778;-69
2022/11/25 13:15:29;;;;;;;;;;;;;;;7.37;78.61;98996.96;24651;1333;3057232;-67
2022/11/25 13:18:02;;;;;;;14.90;8.40;;;;;;;7.25;79.10;98997.75;24644;1322;3026275;-68
2022/11/25 13:20:35;;;;;;;13.30;6.50;;;;;;;7.20;79.83;99004.86;24564;1330;3053121;-68
2022/11/25 13:23:06;;;;;;;12.00;6.20;;;;;;;7.80;78.31;99004.51;24574;1331;3026163;-70
2022/11/25 13:25:37;;;;;;;12.40;6.80;;;;;;;8.40;75.77;99001.63;24535;1336;3027241;-67
2022/11/25 13:28:31;;;;;;;14.20;7.70;;;;;;;8.55;74.88;99003.90;24558;1330;3025007;-67
2022/11/25 13:31:30;;;;;;;13.50;8.20;;;;;;;8.37;75.00;99002.13;24699;1331;3068055;-67
2022/11/25 13:34:18;;;;;;;15.60;8.00;;;;;;;8.08;75.94;99014.60;24608;1317;3049918;-66
2022/11/25 13:37:00;;;;;;;16.60;8.60;;;;;;;7.97;76.36;99015.77;24608;1333;3057223;-66
2022/11/25 13:39:33;;;;;;;15.10;8.80;;;;;;;7.89;76.69;99018.98;24623;1341;3052676;-66
2022/11/25 13:42:22;;;;;;;17.00;10.10;;;;;;;7.72;77.17;99020.64;24673;1333;3052875;-68
2022/11/25 13:44:55;;;;;;;21.20;10.00;;;;;;;7.58;77.52;99016.21;24688;1334;3051550;-65
2022/11/25 13:47:35;;;;;;;;;;;;;;;7.47;78.02;99013.30;24703;1341;3051775;-66
2022/11/25 13:50:27;;;;;;;19.80;9.00;;;;;;;7.46;78.44;99019.09;24588;1337;3049201;-66
2022/11/25 13:52:59;;;;;;;12.40;5.70;;;;;;;7.43;78.45;99019.10;24567;1329;3068485;-65
2022/11/25 13:55:32;;;;;;;10.80;4.80;;;;;;;8.22;76.38;99019.01;24683;1334;3027158;-68
2022/11/25 13:58:28;;;;;;;12.20;7.00;;;;;;;8.73;73.67;99015.20;24571;1330;3025852;-66
2022/11/25 14:01:23;;;;;;;18.40;9.00;;;;;;;8.63;73.27;99016.65;24599;1329;3052561;-66
2022/11/25 14:03:55;;;;;;;16.20;9.20;;;;;;;8.45;74.03;99021.94;24616;1336;3055424;-64
2022/11/25 14:06:37;;;;;;;15.30;8.50;;;;;;;8.36;74.25;99027.13;24612;1332;3026638;-64
2022/11/25 14:09:19;;;;;;;16.40;8.10;;;;;;;8.26;74.57;99024.73;24539;1330;3052540;-67
2022/11/25 14:11:54;;;;;;;20.40;8.60;;;;;;;8.13;74.62;99023.58;24640;1331;3048651;-68
2022/11/25 14:14:41;;;;;;;18.30;9.10;;;;;;;8.02;75.21;99026.46;24671;1331;3068709;-66
2022/11/25 14:17:39;;;;;;;16.50;8.80;;;;;;;7.91;75.77;99023.97;24620;1333;3050504;-68
2022/11/25 14:20:46;;;;;;;19.60;9.00;;;;;;;7.91;75.58;99023.42;24617;1332;3057733;-66
2022/11/25 14:23:48;;;;;;;17.80;8.20;;;;;;;7.81;75.84;99020.32;24602;1336;3053007;-66
2022/11/25 14:26:35;;;;;;;15.20;8.20;;;;;;;7.75;76.11;99022.23;24593;1339;3054673;-66
2022/11/25 14:29:21;;;;;;;11.00;5.70;;;;;;;7.78;76.18;99025.77;24501;1330;3052348;-65
2022/11/25 14:31:53;;;;;;;13.10;5.70;;;;;;;8.51;74.28;99031.14;24548;1334;3051917;-65
2022/11/25 14:34:31;;;;;;;21.10;8.20;;;;;;;9.03;72.18;99031.21;24567;1324;3026740;-67
2022/11/25 14:37:18;;;;;;;16.90;8.70;;;;;;;9.11;71.43;99031.45;24497;1331;3069280;-67
2022/11/25 14:39:55;;;;;;;22.70;9.90;;;;;;;8.99;71.52;99032.53;24574;1338;3050075;-64
2022/11/25 14:42:26;;;;;;;18.10;9.10;;;;;;;8.77;72.16;99035.44;24584;1328;3026583;-66
2022/11/25 14:44:58;;;;;;;16.00;8.90;;;;;;;8.66;72.76;99041.32;24523;1334;3028552;-66
2022/11/25 14:47:30;;;;;;;21.70;9.30;;;;;;;8.40;73.35;99042.80;24594;1333;3027031;-65
2022/11/25 14:49:59;;;;;;;16.90;9.20;;;;;;;8.27;74.34;99050.35;24667;1332;3028739;-68
2022/11/25 14:52:42;;;;;;;17.70;9.20;;;;;;;8.25;74.18;99054.30;24656;1334;3052945;-66
2022/11/25 14:55:26;;;;;;;15.60;8.70;;;;;;;8.10;74.98;99052.56;24711;1341;3049181;-68
2022/11/25 14:57:55;;;;;;;17.60;9.50;;;;;;;8.01;75.38;99061.04;24608;1332;3069138;-68
2022/11/25 15:00:25;;;;;;;18.90;9.70;;;;;;;8.01;75.52;99059.46;24708;1332;3028081;-66
2022/11/25 15:02:55;;;;;;;12.60;6.10;;;;;;;7.97;75.53;99059.38;24634;1332;3026239;-65
2022/11/25 15:05:31;;;;;;;9.90;5.50;;;;;;;8.55;74.99;99062.66;24629;1333;3026966;-65
2022/11/25 15:08:12;;;;;;;18.20;7.20;;;;;;;8.92;72.57;99062.59;24528;1331;3053466;-68
2022/11/25 15:10:41;;;;;;;19.20;8.30;;;;;;;9.02;72.07;99061.66;24632;1334;3052583;-68
2022/11/25 15:13:25;;;;;;;16.10;8.40;;;;;;;8.81;72.61;99062.23;24593;1331;3025823;-66
2022/11/25 15:16:18;;;;;;;19.70;9.50;;;;;;;8.65;72.95;99064.24;24577;1339;3055844;-64
2022/11/25 15:18:57;;;;;;;18.40;9.40;;;;;;;8.44;73.70;99066.80;24657;1326;3051327;-66
2022/11/25 15:22:00;;;;;;;18.20;9.10;;;;;;;8.22;74.51;99068.77;24698;1334;3052435;-66
2022/11/25 15:24:44;;;;;;;14.50;8.40;;;;;;;7.98;75.65;99065.59;24672;1339;3049560;-66
2022/11/25 15:27:24;;;;;;;20.90;9.60;;;;;;;8.04;75.16;99061.74;24764;1333;3068020;-66
2022/11/25 15:29:55;;;;;;;17.90;8.50;;;;;;;7.92;75.79;99063.63;24711;1329;3049212;-69
2022/11/25 15:32:29;;;;;;;17.50;8.60;;;;;;;7.80;76.26;99066.02;24667;1335;3026608;-66
2022/11/25 15:35:00;;;;;;;17.40;8.10;;;;;;;7.77;76.54;99069.90;24633;1329;3052777;-66
2022/11/25 15:37:30;;;;;;;12.30;5.90;;;;;;;7.80;76.67;99074.98;24585;1339;3028134;-67
2022/11/25 15:40:53;;;;;;;13.60;6.50;;;;;;;8.32;75.20;99064.86;24633;1326;3026379;-65
2022/11/25 15:43:28;;;;;;;12.80;6.90;;;;;;;8.89;73.06;99061.58;24350;1347;3053081;-68
2022/11/25 15:46:02;;;;;;;15.00;7.60;;;;;;;8.88;72.71;99059.72;24626;1332;3052857;-66
2022/11/25 15:48:36;;;;;;;;;;;;;;;8.72;73.21;99058.55;24555;1340;3051043;-64
2022/11/25 15:51:32;;;;;;;20.10;8.70;;;;;;;8.52;73.84;99062.51;24590;1333;3052421;-69
2022/11/25 15:54:25;;;;;;;16.70;8.00;;;;;;;8.23;75.26;99066.80;24796;1337;3048800;-64
2022/11/25 15:57:02;;;;;;;21.00;9.60;;;;;;;8.20;75.25;99065.05;24659;1325;3069441;-69
2022/11/25 15:59:55;;;;;;;18.10;8.20;;;;;;;8.11;75.87;99062.26;24806;1327;3049317;-66
2022/11/25 16:02:31;;;;;;;16.70;8.40;;;;;;;8.14;75.78;99063.10;24655;1333;3026706;-65
2022/11/25 16:05:14;;;;;;;16.70;9.50;;;;;;;8.10;75.58;99067.91;24596;1329;3052376;-67
2022/11/25 16:07:50;;;;;;;17.90;9.40;;;;;;;8.05;75.77;99066.22;24888;1334;3052767;-69
2022/11/25 16:10:33;;;;;;;11.40;5.30;;;;;;;8.06;75.75;99071.60;24778;1332;3052357;-68
2022/11/25 16:13:22;;;;;;;12.70;5.70;;;;;;;8.65;74.48;99065.95;24688;1333;3052803;-64
2022/11/25 16:15:52;;;;;;;11.50;5.80;;;;;;;9.22;72.91;99063.41;24537;1318;3049568;-67
2022/11/25 16:18:56;;;;;;;15.30;7.50;;;;;;;9.34;72.22;99063.02;24587;1334;3069115;-68
2022/11/25 16:21:35;;;;;;;14.20;6.50;;;;;;;9.17;72.32;99062.15;24674;1333;3050945;-64
2022/11/25 16:24:04;;;;;;;14.00;6.70;;;;;;;8.98;72.34;99060.70;24488;1325;3056532;-68
2022/11/25 16:26:34;;;;;;;12.50;6.90;;;;;;;8.78;72.75;99062.41;24558;1327;3026053;-66
2022/11/25 16:29:21;;;;;;;13.30;7.10;;;;;;;8.65;73.16;99065.79;24865;1331;3048823;-64
2022/11/25 16:31:53;;;;;;;15.30;8.30;;;;;;;8.49;73.49;99068.45;24774;1332;3057927;-66
2022/11/25 16:34:26;;;;;;;14.20;7.30;;;;;;;8.33;74.22;99072.67;24740;1331;3026904;-65
2022/11/25 16:36:57;;;;;;;13.00;6.90;;;;;;;8.19;74.48;99071.71;24839;1319;3026072;-65
2022/11/25 16:39:26;;;;;;;14.50;7.20;;;;;;;8.09;75.21;99067.44;24752;1332;3025724;-67
2022/11/25 16:41:57;;;;;;;12.70;7.10;;;;;;;7.95;75.84;99073.78;24948;1333;3052541;-69
2022/11/25 16:44:26;;;;;;;10.10;4.80;;;;;;;7.85;76.40;99077.10;24719;1333;3026356;-71
2022/11/25 16:46:56;;;;;;;7.50;4.30;;;;;;;8.33;75.46;99072.17;24756;1326;3026486;-68
2022/11/25 16:49:29;;;;;;;13.80;6.60;;;;;;;8.94;73.53;99065.31;24572;1327;3025838;-67
2022/11/25 16:51:58;;;;;;;13.10;6.80;;;;;;;9.00;72.83;99062.98;24654;1335;3027086;-69
2022/11/25 16:54:32;;;;;;;18.20;8.70;;;;;;;8.86;72.85;99060.19;24736;1326;3068586;-67
2022/11/25 16:57:02;;;;;;;15.70;8.10;;;;;;;8.60;73.33;99060.81;24709;1335;3026578;-66
2022/11/25 16:59:34;;;;;;;17.40;9.30;;;;;;;8.46;74.04;99065.14;24779;1333;3026000;-67
2022/11/25 17:02:18;;;;;;;20.80;9.80;;;;;;;8.24;74.79;99066.05;24708;1334;3026958;-66
2022/11/25 17:05:17;;;;;;;17.70;7.70;;;;;;;7.89;75.91;99073.96;24665;1332;3053352;-68
2022/11/25 17:07:51;;;;;;;15.10;8.30;;;;;;;7.65;77.05;99077.85;24669;1322;3053546;-65
2022/11/25 17:10:22;;;;;;;14.60;8.30;;;;;;;7.53;77.91;99086.89;24657;1332;3053008;-66
2022/11/25 17:13:22;;;;;;;12.50;7.50;;;;;;;7.45;78.07;99083.28;24817;1335;3049373;-71
2022/11/25 17:15:55;;;;;;;9.90;5.20;;;;;;;7.34;79.12;99091.38;24776;1322;3069936;-70
2022/11/25 17:18:25;;;;;;;11.30;4.90;;;;;;;8.00;77.61;99087.11;24697;1326;3026094;-68
2022/11/25 17:20:59;;;;;;;11.10;5.90;;;;;;;8.50;75.25;99089.52;24747;1333;3049330;-65
2022/11/25 17:23:31;;;;;;;13.80;7.20;;;;;;;8.52;74.84;99093.05;24633;1333;3069856;-66
2022/11/25 17:26:01;;;;;;;11.90;7.60;;;;;;;8.30;75.50;99089.77;24643;1340;3025880;-70
2022/11/25 17:28:31;;;;;;;11.00;6.10;;;;;;;8.10;76.10;99096.10;24640;1328;3028139;-68
2022/11/25 17:31:00;;;;;;;12.50;7.10;;;;;;;7.99;76.50;99097.61;24605;1325;3025793;-70
2022/11/25 17:33:33;;;;;;;13.40;6.90;;;;;;;7.91;76.77;99092.12;24665;1332;3050751;-68
2022/11/25 17:36:03;;;;;;;12.70;6.70;;;;;;;7.82;76.93;99092.80;24680;1326;3026463;-70
2022/11/25 17:38:32;;;;;;;14.90;7.50;;;;;;;7.67;77.40;99093.79;24741;1331;3028821;-67
2022/11/25 17:41:26;;;;;;;;;;;;;;;7.50;78.30;99096.79;24524;1337;3054411;-69
2022/11/25 17:43:56;;;;;;;11.90;6.30;;;;;;;7.45;78.26;99095.67;24482;1327;3028734;-66
2022/11/25 17:46:28;;;;;;;8.10;4.40;;;;;;;7.46;78.49;99095.80;24592;1333;3026890;-66
2022/11/25 17:48:57;;;;;;;9.70;4.70;;;;;;;8.11;76.55;99091.02;24508;1332;3053325;-67
2022/11/25 17:51:27;;;;;;;11.00;5.80;;;;;;;8.64;74.62;99088.70;24560;1326;3025740;-69
2022/11/25 17:53:56;;;;;;;12.70;6.90;;;;;;;8.72;73.96;99088.60;24582;1339;3026302;-68
2022/11/25 17:56:27;;;;;;;11.40;6.70;;;;;;;8.71;74.02;99101.58;24570;1333;3025771;-73
2022/11/25 17:59:01;;;;;;;16.20;7.10;;;;;;;8.57;74.01;99099.42;24528;1325;3051610;-69
2022/11/25 18:01:30;;;;;;;10.70;6.10;;;;;;;8.33;73.85;99094.30;24562;1333;3051960;-70
2022/11/25 18:04:21;;;;;;;13.30;7.70;;;;;;;8.05;74.75;99096.27;24546;1333;3026532;-68
2022/11/25 18:07:15;;;;;;;13.00;7.00;;;;;;;7.87;75.45;99098.60;24566;1332;3071522;-70
2022/11/25 18:09:46;;;;;;;11.90;6.90;;;;;;;7.79;75.47;99094.20;24553;1333;3026447;-67
2022/11/25 18:12:18;;;;;;;11.60;6.50;;;;;;;7.71;75.63;99094.61;24549;1339;3025992;-70
2022/11/25 18:14:47;;;;;;;15.30;7.70;;;;;;;7.62;75.93;99099.12;24619;1333;3068678;-67
2022/11/25 18:17:17;;;;;;;8.40;4.90;;;;;;;7.54;76.61;99111.05;24606;1321;3028955;-66
2022/11/25 18:19:48;;;;;;;11.90;5.40;;;;;;;7.94;75.58;99104.35;24606;1334;3048807;-67
2022/11/25 18:22:18;;;;;;;10.30;6.00;;;;;;;8.43;73.81;99096.90;24578;1333;3027043;-65
2022/11/25 18:24:47;;;;;;;13.20;6.80;;;;;;;8.47;73.48;99098.09;24569;1324;3026372;-69
2022/11/25 18:27:25;;;;;;;14.10;7.90;;;;;;;8.41;73.32;99098.05;24566;1333;3049207;-71
2022/11/25 18:30:21;;;;;;;16.00;8.40;;;;;;;8.15;73.93;99101.98;24774;1326;3069201;-70
2022/11/25 18:32:50;;;;;;;16.40;7.30;;;;;;;7.81;75.05;99105.08;25414;1333;3025937;-70
2022/11/25 18:35:24;;;;;;;15.10;8.70;;;;;;;7.74;75.43;99108.06;25048;1332;3026978;-70
2022/11/25 18:37:52;;;;;;;13.80;8.00;;;;;;;7.51;76.30;99117.84;24560;1337;3068462;-68
2022/11/25 18:40:23;;;;;;;15.80;7.70;;;;;;;7.39;76.40;99125.06;24574;1332;3026091;-68
2022/11/25 18:42:54;;;;;;;15.80;7.90;;;;;;;7.27;77.08;99125.90;24587;1340;3048072;-70
2022/11/25 18:45:29;;;;;;;18.00;8.70;;;;;;;7.25;77.43;99127.39;24578;1332;3025930;-71